sensor_id;sensor_type;location;lat;lon;timestamp;temperature;humidity
26579;DHT22;14227;47.674;19.320;2022-10-16T00:00:40;18.30;47.30
26579;DHT22;14227;47.674;19.320;2022-10-16T00:03:06;18.30;47.30
26579;DHT22;14227;47.674;19.320;2022-10-16T00:05:33;18.30;47.50
26579;DHT22;14227;47.674;19.320;2022-10-16T00:07:59;18.20;47.30
26579;DHT22;14227;47.674;19.320;2022-10-16T00:10:24;18.20;47.50
26579;DHT22;14227;47.674;19.320;2022-10-16T00:12:50;18.20;47.40
26579;DHT22;14227;47.674;19.320;2022-10-16T00:15:16;18.20;47.50
26579;DHT22;14227;47.674;19.320;2022-10-16T00:17:41;18.20;47.60
26579;DHT22;14227;47.674;19.320;2022-10-16T00:20:07;18.20;47.60
26579;DHT22;14227;47.674;19.320;2022-10-16T00:22:33;18.10;47.50
26579;DHT22;14227;47.674;19.320;2022-10-16T00:24:59;18.10;47.70
26579;DHT22;14227;47.674;19.320;2022-10-16T00:27:25;18.10;47.60
26579;DHT22;14227;47.674;19.320;2022-10-16T00:29:51;18.10;47.60
26579;DHT22;14227;47.674;19.320;2022-10-16T00:32:18;18.10;47.80
26579;DHT22;14227;47.674;19.320;2022-10-16T00:34:44;18.10;47.80
26579;DHT22;14227;47.674;19.320;2022-10-16T00:37:10;18.00;47.80
26579;DHT22;14227;47.674;19.320;2022-10-16T00:39:35;18.00;48.00
26579;DHT22;14227;47.674;19.320;2022-10-16T00:42:01;18.00;48.20
26579;DHT22;14227;47.674;19.320;2022-10-16T00:44:53;18.00;48.30
26579;DHT22;14227;47.674;19.320;2022-10-16T00:47:26;18.00;48.20
26579;DHT22;14227;47.674;19.320;2022-10-16T00:49:58;17.90;48.50
26579;DHT22;14227;47.674;19.320;2022-10-16T00:52:25;17.90;48.50
26579;DHT22;14227;47.674;19.320;2022-10-16T00:54:53;17.90;48.50
26579;DHT22;14227;47.674;19.320;2022-10-16T00:57:19;17.90;48.50
26579;DHT22;14227;47.674;19.320;2022-10-16T00:59:45;17.80;48.40
26579;DHT22;14227;47.674;19.320;2022-10-16T01:02:14;17.80;48.30
26579;DHT22;14227;47.674;19.320;2022-10-16T01:04:47;17.80;48.30
26579;DHT22;14227;47.674;19.320;2022-10-16T01:18:14;17.70;48.20
26579;DHT22;14227;47.674;19.320;2022-10-16T01:27:12;17.50;48.60
26579;DHT22;14227;47.674;19.320;2022-10-16T01:29:41;17.50;48.80
26579;DHT22;14227;47.674;19.320;2022-10-16T01:32:17;17.40;49.00
26579;DHT22;14227;47.674;19.320;2022-10-16T01:35:09;17.40;48.90
26579;DHT22;14227;47.674;19.320;2022-10-16T01:37:51;17.40;48.80
26579;DHT22;14227;47.674;19.320;2022-10-16T01:40:20;17.40;49.00
26579;DHT22;14227;47.674;19.320;2022-10-16T01:43:08;17.30;48.90
26579;DHT22;14227;47.674;19.320;2022-10-16T01:45:38;17.30;48.80
26579;DHT22;14227;47.674;19.320;2022-10-16T01:48:07;17.20;48.90
26579;DHT22;14227;47.674;19.320;2022-10-16T01:50:38;17.20;48.80
26579;DHT22;14227;47.674;19.320;2022-10-16T01:53:07;17.20;48.80
26579;DHT22;14227;47.674;19.320;2022-10-16T01:55:37;17.20;48.80
26579;DHT22;14227;47.674;19.320;2022-10-16T01:58:07;17.10;48.60
26579;DHT22;14227;47.674;19.320;2022-10-16T02:00:37;17.10;48.70
26579;DHT22;14227;47.674;19.320;2022-10-16T02:03:05;17.10;48.60
26579;DHT22;14227;47.674;19.320;2022-10-16T02:05:42;17.00;48.50
26579;DHT22;14227;47.674;19.320;2022-10-16T02:08:17;17.00;48.50
26579;DHT22;14227;47.674;19.320;2022-10-16T02:10:54;16.90;48.60
26579;DHT22;14227;47.674;19.320;2022-10-16T02:16:50;16.90;48.20
26579;DHT22;14227;47.674;19.320;2022-10-16T02:19:19;16.80;48.30
26579;DHT22;14227;47.674;19.320;2022-10-16T02:21:56;16.80;48.30
26579;DHT22;14227;47.674;19.320;2022-10-16T02:25:05;16.80;48.20
26579;DHT22;14227;47.674;19.320;2022-10-16T02:30:48;16.60;48.10
26579;DHT22;14227;47.674;19.320;2022-10-16T02:33:17;16.60;48.30
26579;DHT22;14227;47.674;19.320;2022-10-16T02:36:07;16.50;48.20
26579;DHT22;14227;47.674;19.320;2022-10-16T02:38:41;16.50;48.10
26579;DHT22;14227;47.674;19.320;2022-10-16T02:41:18;16.50;48.10
26579;DHT22;14227;47.674;19.320;2022-10-16T02:44:15;16.40;48.00
26579;DHT22;14227;47.674;19.320;2022-10-16T02:46:43;16.30;48.00
26579;DHT22;14227;47.674;19.320;2022-10-16T02:49:37;16.30;48.00
26579;DHT22;14227;47.674;19.320;2022-10-16T02:52:03;16.30;47.70
26579;DHT22;14227;47.674;19.320;2022-10-16T02:54:41;16.10;47.70
26579;DHT22;14227;47.674;19.320;2022-10-16T02:57:13;16.10;48.00
26579;DHT22;14227;47.674;19.320;2022-10-16T02:59:52;16.10;48.00
26579;DHT22;14227;47.674;19.320;2022-10-16T03:02:19;16.10;47.90
26579;DHT22;14227;47.674;19.320;2022-10-16T03:04:52;16.00;47.80
26579;DHT22;14227;47.674;19.320;2022-10-16T03:07:26;16.00;47.80
26579;DHT22;14227;47.674;19.320;2022-10-16T03:09:54;15.90;47.80
26579;DHT22;14227;47.674;19.320;2022-10-16T03:12:22;15.90;47.80
26579;DHT22;14227;47.674;19.320;2022-10-16T03:14:48;15.80;47.60
26579;DHT22;14227;47.674;19.320;2022-10-16T03:17:19;15.80;47.60
26579;DHT22;14227;47.674;19.320;2022-10-16T03:20:16;15.80;47.60
26579;DHT22;14227;47.674;19.320;2022-10-16T03:23:02;15.70;47.30
26579;DHT22;14227;47.674;19.320;2022-10-16T03:25:52;15.60;47.70
26579;DHT22;14227;47.674;19.320;2022-10-16T03:28:23;15.60;47.50
26579;DHT22;14227;47.674;19.320;2022-10-16T03:31:15;15.60;47.80
26579;DHT22;14227;47.674;19.320;2022-10-16T03:34:08;15.60;47.70
26579;DHT22;14227;47.674;19.320;2022-10-16T03:37:03;15.60;47.80
26579;DHT22;14227;47.674;19.320;2022-10-16T03:39:39;15.40;47.90
26579;DHT22;14227;47.674;19.320;2022-10-16T03:42:53;15.50;47.90
26579;DHT22;14227;47.674;19.320;2022-10-16T03:46:07;15.40;47.60
26579;DHT22;14227;47.674;19.320;2022-10-16T03:48:53;15.30;47.60
26579;DHT22;14227;47.674;19.320;2022-10-16T03:51:40;15.20;47.50
26579;DHT22;14227;47.674;19.320;2022-10-16T03:54:31;15.20;47.40
26579;DHT22;14227;47.674;19.320;2022-10-16T03:57:01;15.10;47.60
26579;DHT22;14227;47.674;19.320;2022-10-16T03:59:45;15.00;47.50
26579;DHT22;14227;47.674;19.320;2022-10-16T04:02:15;15.00;47.50
26579;DHT22;14227;47.674;19.320;2022-10-16T04:04:57;14.90;47.80
26579;DHT22;14227;47.674;19.320;2022-10-16T04:07:54;15.00;47.90
26579;DHT22;14227;47.674;19.320;2022-10-16T04:10:42;14.90;47.70
26579;DHT22;14227;47.674;19.320;2022-10-16T04:13:48;14.90;47.70
26579;DHT22;14227;47.674;19.320;2022-10-16T04:16:47;14.90;47.80
26579;DHT22;14227;47.674;19.320;2022-10-16T04:19:37;14.90;47.70
26579;DHT22;14227;47.674;19.320;2022-10-16T04:22:19;14.80;47.60
26579;DHT22;14227;47.674;19.320;2022-10-16T04:24:52;14.80;47.70
26579;DHT22;14227;47.674;19.320;2022-10-16T04:27:20;14.70;47.70
26579;DHT22;14227;47.674;19.320;2022-10-16T04:29:47;14.70;47.70
26579;DHT22;14227;47.674;19.320;2022-10-16T04:32:21;14.70;47.60
26579;DHT22;14227;47.674;19.320;2022-10-16T04:34:55;14.70;47.70
26579;DHT22;14227;47.674;19.320;2022-10-16T04:37:41;14.60;47.50
26579;DHT22;14227;47.674;19.320;2022-10-16T04:40:08;14.60;47.60
26579;DHT22;14227;47.674;19.320;2022-10-16T04:42:35;14.60;47.60
26579;DHT22;14227;47.674;19.320;2022-10-16T04:45:04;14.50;47.40
26579;DHT22;14227;47.674;19.320;2022-10-16T04:47:36;14.40;47.30
26579;DHT22;14227;47.674;19.320;2022-10-16T04:50:06;14.40;47.40
26579;DHT22;14227;47.674;19.320;2022-10-16T04:52:55;14.40;47.40
26579;DHT22;14227;47.674;19.320;2022-10-16T04:55:21;14.40;47.50
26579;DHT22;14227;47.674;19.320;2022-10-16T04:57:47;14.30;47.40
26579;DHT22;14227;47.674;19.320;2022-10-16T05:00:13;14.30;47.30
26579;DHT22;14227;47.674;19.320;2022-10-16T05:02:41;14.30;47.40
26579;DHT22;14227;47.674;19.320;2022-10-16T05:05:07;14.30;47.40
26579;DHT22;14227;47.674;19.320;2022-10-16T05:07:34;14.20;47.30
26579;DHT22;14227;47.674;19.320;2022-10-16T05:10:00;14.20;47.30
26579;DHT22;14227;47.674;19.320;2022-10-16T05:12:26;14.20;47.30
26579;DHT22;14227;47.674;19.320;2022-10-16T05:14:51;14.20;47.30
26579;DHT22;14227;47.674;19.320;2022-10-16T05:17:40;14.20;47.40
26579;DHT22;14227;47.674;19.320;2022-10-16T05:20:07;14.10;47.10
26579;DHT22;14227;47.674;19.320;2022-10-16T05:22:34;14.10;47.40
26579;DHT22;14227;47.674;19.320;2022-10-16T05:25:01;14.00;47.50
26579;DHT22;14227;47.674;19.320;2022-10-16T05:27:26;14.00;48.00
26579;DHT22;14227;47.674;19.320;2022-10-16T05:29:52;14.00;48.40
26579;DHT22;14227;47.674;19.320;2022-10-16T05:32:18;14.00;48.20
26579;DHT22;14227;47.674;19.320;2022-10-16T05:34:45;14.00;48.10
26579;DHT22;14227;47.674;19.320;2022-10-16T05:37:11;14.00;48.10
26579;DHT22;14227;47.674;19.320;2022-10-16T05:39:38;14.00;48.10
26579;DHT22;14227;47.674;19.320;2022-10-16T05:42:04;13.90;48.00
26579;DHT22;14227;47.674;19.320;2022-10-16T05:44:31;14.00;48.10
26579;DHT22;14227;47.674;19.320;2022-10-16T05:46:57;14.00;48.10
26579;DHT22;14227;47.674;19.320;2022-10-16T05:49:22;14.00;48.20
26579;DHT22;14227;47.674;19.320;2022-10-16T05:51:48;13.90;48.00
26579;DHT22;14227;47.674;19.320;2022-10-16T05:54:14;13.90;48.10
26579;DHT22;14227;47.674;19.320;2022-10-16T05:56:39;13.90;48.10
26579;DHT22;14227;47.674;19.320;2022-10-16T05:59:05;13.90;48.80
26579;DHT22;14227;47.674;19.320;2022-10-16T06:01:31;13.90;48.20
26579;DHT22;14227;47.674;19.320;2022-10-16T06:03:57;13.90;48.20
26579;DHT22;14227;47.674;19.320;2022-10-16T06:06:25;13.90;48.20
26579;DHT22;14227;47.674;19.320;2022-10-16T06:08:51;14.00;48.50
26579;DHT22;14227;47.674;19.320;2022-10-16T06:11:26;14.00;48.80
26579;DHT22;14227;47.674;19.320;2022-10-16T06:13:53;14.10;48.90
26579;DHT22;14227;47.674;19.320;2022-10-16T06:16:20;14.10;48.90
26579;DHT22;14227;47.674;19.320;2022-10-16T06:18:46;14.10;49.20
26579;DHT22;14227;47.674;19.320;2022-10-16T06:21:19;14.20;49.50
26579;DHT22;14227;47.674;19.320;2022-10-16T06:23:45;14.20;49.50
26579;DHT22;14227;47.674;19.320;2022-10-16T06:26:14;14.30;49.60
26579;DHT22;14227;47.674;19.320;2022-10-16T06:28:41;14.30;49.40
26579;DHT22;14227;47.674;19.320;2022-10-16T06:31:08;14.40;50.40
26579;DHT22;14227;47.674;19.320;2022-10-16T06:33:34;14.40;49.70
26579;DHT22;14227;47.674;19.320;2022-10-16T06:36:06;14.50;49.80
26579;DHT22;14227;47.674;19.320;2022-10-16T06:38:34;14.50;49.80
26579;DHT22;14227;47.674;19.320;2022-10-16T06:40:59;14.60;50.60
26579;DHT22;14227;47.674;19.320;2022-10-16T06:43:25;14.70;50.00
26579;DHT22;14227;47.674;19.320;2022-10-16T06:45:55;14.70;50.00
26579;DHT22;14227;47.674;19.320;2022-10-16T06:48:21;14.80;50.10
26579;DHT22;14227;47.674;19.320;2022-10-16T06:51:11;14.90;49.80
26579;DHT22;14227;47.674;19.320;2022-10-16T06:53:39;15.00;49.30
26579;DHT22;14227;47.674;19.320;2022-10-16T06:56:12;15.10;49.90
26579;DHT22;14227;47.674;19.320;2022-10-16T06:58:38;15.10;49.70
26579;DHT22;14227;47.674;19.320;2022-10-16T07:01:04;15.10;49.60
26579;DHT22;14227;47.674;19.320;2022-10-16T07:03:30;15.20;49.80
26579;DHT22;14227;47.674;19.320;2022-10-16T07:05:56;15.30;49.50
26579;DHT22;14227;47.674;19.320;2022-10-16T07:08:22;15.40;49.60
26579;DHT22;14227;47.674;19.320;2022-10-16T07:10:48;15.50;49.50
26579;DHT22;14227;47.674;19.320;2022-10-16T07:13:14;15.60;49.40
26579;DHT22;14227;47.674;19.320;2022-10-16T07:15:40;15.60;49.30
26579;DHT22;14227;47.674;19.320;2022-10-16T07:18:06;15.70;49.40
26579;DHT22;14227;47.674;19.320;2022-10-16T07:20:32;15.80;49.20
26579;DHT22;14227;47.674;19.320;2022-10-16T07:22:58;15.80;49.10
26579;DHT22;14227;47.674;19.320;2022-10-16T07:25:23;15.90;48.90
26579;DHT22;14227;47.674;19.320;2022-10-16T07:27:49;16.00;48.70
26579;DHT22;14227;47.674;19.320;2022-10-16T07:30:15;16.10;48.60
26579;DHT22;14227;47.674;19.320;2022-10-16T07:32:41;16.20;48.40
26579;DHT22;14227;47.674;19.320;2022-10-16T07:35:06;16.30;48.30
26579;DHT22;14227;47.674;19.320;2022-10-16T07:37:32;16.40;48.00
26579;DHT22;14227;47.674;19.320;2022-10-16T07:39:58;16.50;48.00
26579;DHT22;14227;47.674;19.320;2022-10-16T07:42:23;16.60;47.70
26579;DHT22;14227;47.674;19.320;2022-10-16T07:44:49;16.70;47.40
26579;DHT22;14227;47.674;19.320;2022-10-16T07:47:15;16.80;47.50
26579;DHT22;14227;47.674;19.320;2022-10-16T07:49:40;16.80;47.10
26579;DHT22;14227;47.674;19.320;2022-10-16T07:52:07;16.90;46.80
26579;DHT22;14227;47.674;19.320;2022-10-16T07:54:32;17.10;46.90
26579;DHT22;14227;47.674;19.320;2022-10-16T07:56:58;17.10;46.60
26579;DHT22;14227;47.674;19.320;2022-10-16T07:59:23;17.20;46.50
26579;DHT22;14227;47.674;19.320;2022-10-16T08:01:49;17.30;46.20
26579;DHT22;14227;47.674;19.320;2022-10-16T08:04:15;17.50;46.30
26579;DHT22;14227;47.674;19.320;2022-10-16T08:06:41;17.60;46.00
26579;DHT22;14227;47.674;19.320;2022-10-16T08:09:08;17.60;45.50
26579;DHT22;14227;47.674;19.320;2022-10-16T08:11:34;17.70;45.50
26579;DHT22;14227;47.674;19.320;2022-10-16T08:14:00;17.80;45.60
26579;DHT22;14227;47.674;19.320;2022-10-16T08:16:26;17.90;45.70
26579;DHT22;14227;47.674;19.320;2022-10-16T08:18:51;18.00;45.50
26579;DHT22;14227;47.674;19.320;2022-10-16T08:21:20;18.10;45.30
26579;DHT22;14227;47.674;19.320;2022-10-16T08:23:46;18.20;45.00
26579;DHT22;14227;47.674;19.320;2022-10-16T08:26:12;18.20;44.70
26579;DHT22;14227;47.674;19.320;2022-10-16T08:28:38;18.30;44.60
26579;DHT22;14227;47.674;19.320;2022-10-16T08:31:12;18.30;44.50
26579;DHT22;14227;47.674;19.320;2022-10-16T08:33:40;18.30;44.40
26579;DHT22;14227;47.674;19.320;2022-10-16T08:36:06;18.40;44.60
26579;DHT22;14227;47.674;19.320;2022-10-16T08:38:33;18.50;44.50
26579;DHT22;14227;47.674;19.320;2022-10-16T08:50:02;18.90;44.10
26579;DHT22;14227;47.674;19.320;2022-10-16T08:52:35;19.00;44.30
26579;DHT22;14227;47.674;19.320;2022-10-16T08:55:04;19.10;44.40
26579;DHT22;14227;47.674;19.320;2022-10-16T08:57:30;19.20;43.40
26579;DHT22;14227;47.674;19.320;2022-10-16T09:00:05;19.30;43.50
26579;DHT22;14227;47.674;19.320;2022-10-16T09:02:40;19.40;43.60
26579;DHT22;14227;47.674;19.320;2022-10-16T09:05:34;19.50;43.20
26579;DHT22;14227;47.674;19.320;2022-10-16T09:10:56;19.70;42.90
26579;DHT22;14227;47.674;19.320;2022-10-16T09:13:50;19.80;43.00
26579;DHT22;14227;47.674;19.320;2022-10-16T09:16:23;19.90;42.90
26579;DHT22;14227;47.674;19.320;2022-10-16T09:21:44;20.20;42.10
26579;DHT22;14227;47.674;19.320;2022-10-16T09:24:21;20.30;41.20
26579;DHT22;14227;47.674;19.320;2022-10-16T09:26:49;20.30;41.40
26579;DHT22;14227;47.674;19.320;2022-10-16T09:29:16;20.40;41.30
26579;DHT22;14227;47.674;19.320;2022-10-16T09:31:43;20.50;41.10
26579;DHT22;14227;47.674;19.320;2022-10-16T09:34:24;20.60;41.10
26579;DHT22;14227;47.674;19.320;2022-10-16T09:36:55;20.70;40.40
26579;DHT22;14227;47.674;19.320;2022-10-16T09:39:22;20.70;40.50
26579;DHT22;14227;47.674;19.320;2022-10-16T09:41:48;20.70;40.10
26579;DHT22;14227;47.674;19.320;2022-10-16T09:46:43;20.80;41.10
26579;DHT22;14227;47.674;19.320;2022-10-16T09:49:24;20.90;40.60
26579;DHT22;14227;47.674;19.320;2022-10-16T09:51:51;21.00;40.30
26579;DHT22;14227;47.674;19.320;2022-10-16T09:54:27;21.00;39.90
26579;DHT22;14227;47.674;19.320;2022-10-16T09:57:07;21.10;40.00
26579;DHT22;14227;47.674;19.320;2022-10-16T09:59:33;21.20;40.10
26579;DHT22;14227;47.674;19.320;2022-10-16T10:02:03;21.30;40.30
26579;DHT22;14227;47.674;19.320;2022-10-16T10:04:40;21.40;39.70
26579;DHT22;14227;47.674;19.320;2022-10-16T10:07:07;21.40;39.60
26579;DHT22;14227;47.674;19.320;2022-10-16T10:09:44;21.60;39.20
26579;DHT22;14227;47.674;19.320;2022-10-16T10:12:28;21.70;39.10
26579;DHT22;14227;47.674;19.320;2022-10-16T10:15:03;21.80;39.80
26579;DHT22;14227;47.674;19.320;2022-10-16T10:17:29;21.90;39.20
26579;DHT22;14227;47.674;19.320;2022-10-16T10:19:58;22.00;39.40
26579;DHT22;14227;47.674;19.320;2022-10-16T10:36:27;22.20;38.10
26579;DHT22;14227;47.674;19.320;2022-10-16T10:38:56;22.30;38.80
26579;DHT22;14227;47.674;19.320;2022-10-16T10:46:56;22.60;37.90
26579;DHT22;14227;47.674;19.320;2022-10-16T10:49:37;22.60;37.90
26579;DHT22;14227;47.674;19.320;2022-10-16T10:58:24;22.70;37.70
26579;DHT22;14227;47.674;19.320;2022-10-16T11:01:10;22.80;37.50
26579;DHT22;14227;47.674;19.320;2022-10-16T11:07:15;22.80;37.00
26579;DHT22;14227;47.674;19.320;2022-10-16T11:09:25;22.80;36.80
26579;DHT22;14227;47.674;19.320;2022-10-16T11:14:34;22.90;36.70
26579;DHT22;14227;47.674;19.320;2022-10-16T11:17:15;22.90;36.70
26579;DHT22;14227;47.674;19.320;2022-10-16T11:25:31;23.10;36.70
26579;DHT22;14227;47.674;19.320;2022-10-16T11:28:16;23.20;35.90
26579;DHT22;14227;47.674;19.320;2022-10-16T11:31:02;23.20;35.90
26579;DHT22;14227;47.674;19.320;2022-10-16T11:33:40;23.30;36.00
26579;DHT22;14227;47.674;19.320;2022-10-16T11:39:04;23.40;36.10
26579;DHT22;14227;47.674;19.320;2022-10-16T11:41:37;23.40;35.60
26579;DHT22;14227;47.674;19.320;2022-10-16T11:49:47;23.50;36.10
26579;DHT22;14227;47.674;19.320;2022-10-16T11:55:20;23.60;34.70
26579;DHT22;14227;47.674;19.320;2022-10-16T11:57:48;23.60;35.60
26579;DHT22;14227;47.674;19.320;2022-10-16T12:00:24;23.50;35.70
26579;DHT22;14227;47.674;19.320;2022-10-16T12:03:17;23.60;34.90
26579;DHT22;14227;47.674;19.320;2022-10-16T12:08:16;23.70;34.20
26579;DHT22;14227;47.674;19.320;2022-10-16T12:10:44;23.70;33.90
26579;DHT22;14227;47.674;19.320;2022-10-16T12:16:07;23.90;34.30
26579;DHT22;14227;47.674;19.320;2022-10-16T12:18:44;23.90;34.10
26579;DHT22;14227;47.674;19.320;2022-10-16T12:21:11;23.90;35.00
26579;DHT22;14227;47.674;19.320;2022-10-16T12:23:53;24.00;33.80
26579;DHT22;14227;47.674;19.320;2022-10-16T12:26:33;24.10;33.50
26579;DHT22;14227;47.674;19.320;2022-10-16T12:29:22;24.10;34.30
26579;DHT22;14227;47.674;19.320;2022-10-16T12:31:49;24.10;34.60
26579;DHT22;14227;47.674;19.320;2022-10-16T12:34:41;24.10;34.10
26579;DHT22;14227;47.674;19.320;2022-10-16T12:37:25;24.20;33.80
26579;DHT22;14227;47.674;19.320;2022-10-16T12:39:53;24.20;33.50
26579;DHT22;14227;47.674;19.320;2022-10-16T12:44:54;24.10;33.90
26579;DHT22;14227;47.674;19.320;2022-10-16T12:47:35;24.10;34.60
26579;DHT22;14227;47.674;19.320;2022-10-16T12:50:01;24.10;35.10
26579;DHT22;14227;47.674;19.320;2022-10-16T12:52:38;24.10;33.80
26579;DHT22;14227;47.674;19.320;2022-10-16T12:55:06;24.20;34.00
26579;DHT22;14227;47.674;19.320;2022-10-16T13:14:20;24.10;34.70
26579;DHT22;14227;47.674;19.320;2022-10-16T13:19:52;24.30;33.20
26579;DHT22;14227;47.674;19.320;2022-10-16T13:22:30;24.30;33.40
26579;DHT22;14227;47.674;19.320;2022-10-16T13:28:07;24.30;32.70
26579;DHT22;14227;47.674;19.320;2022-10-16T13:30:44;24.30;33.80
26579;DHT22;14227;47.674;19.320;2022-10-16T13:33:16;24.30;34.30
26579;DHT22;14227;47.674;19.320;2022-10-16T13:35:54;24.30;33.00
26579;DHT22;14227;47.674;19.320;2022-10-16T13:38:26;24.20;31.90
26579;DHT22;14227;47.674;19.320;2022-10-16T13:43:38;24.20;33.90
26579;DHT22;14227;47.674;19.320;2022-10-16T13:46:13;24.30;33.40
26579;DHT22;14227;47.674;19.320;2022-10-16T13:48:39;24.30;32.70
26579;DHT22;14227;47.674;19.320;2022-10-16T13:51:17;24.30;34.20
26579;DHT22;14227;47.674;19.320;2022-10-16T13:53:43;24.30;32.90
26579;DHT22;14227;47.674;19.320;2022-10-16T13:56:18;24.30;32.00
26579;DHT22;14227;47.674;19.320;2022-10-16T13:58:45;24.40;32.50
26579;DHT22;14227;47.674;19.320;2022-10-16T14:01:20;24.40;33.50
26579;DHT22;14227;47.674;19.320;2022-10-16T14:03:49;24.30;33.60
26579;DHT22;14227;47.674;19.320;2022-10-16T14:06:19;24.30;34.10
26579;DHT22;14227;47.674;19.320;2022-10-16T14:09:12;24.40;32.80
26579;DHT22;14227;47.674;19.320;2022-10-16T14:11:50;24.40;31.80
26579;DHT22;14227;47.674;19.320;2022-10-16T14:14:18;24.30;33.30
26579;DHT22;14227;47.674;19.320;2022-10-16T14:16:44;24.40;33.50
26579;DHT22;14227;47.674;19.320;2022-10-16T14:19:28;24.30;34.00
26579;DHT22;14227;47.674;19.320;2022-10-16T14:21:54;24.50;34.70
26579;DHT22;14227;47.674;19.320;2022-10-16T14:26:55;24.50;33.00
26579;DHT22;14227;47.674;19.320;2022-10-16T14:29:23;24.40;33.90
26579;DHT22;14227;47.674;19.320;2022-10-16T14:32:05;24.50;34.00
26579;DHT22;14227;47.674;19.320;2022-10-16T14:34:37;24.50;33.30
26579;DHT22;14227;47.674;19.320;2022-10-16T14:37:16;24.50;33.80
26579;DHT22;14227;47.674;19.320;2022-10-16T14:39:51;24.60;33.60
26579;DHT22;14227;47.674;19.320;2022-10-16T14:42:19;24.60;34.00
26579;DHT22;14227;47.674;19.320;2022-10-16T14:44:46;24.60;32.80
26579;DHT22;14227;47.674;19.320;2022-10-16T14:47:17;24.70;33.10
26579;DHT22;14227;47.674;19.320;2022-10-16T14:49:47;24.70;33.40
26579;DHT22;14227;47.674;19.320;2022-10-16T14:52:13;24.70;33.10
26579;DHT22;14227;47.674;19.320;2022-10-16T14:54:39;24.80;31.90
26579;DHT22;14227;47.674;19.320;2022-10-16T14:57:05;24.80;32.10
26579;DHT22;14227;47.674;19.320;2022-10-16T14:59:40;24.90;31.70
26579;DHT22;14227;47.674;19.320;2022-10-16T15:02:20;24.90;31.70
26579;DHT22;14227;47.674;19.320;2022-10-16T15:04:48;25.10;32.40
26579;DHT22;14227;47.674;19.320;2022-10-16T15:07:14;25.10;32.30
26579;DHT22;14227;47.674;19.320;2022-10-16T15:09:40;25.20;32.90
26579;DHT22;14227;47.674;19.320;2022-10-16T15:12:06;25.20;32.60
26579;DHT22;14227;47.674;19.320;2022-10-16T15:14:31;25.10;32.30
26579;DHT22;14227;47.674;19.320;2022-10-16T15:16:57;24.90;32.20
26579;DHT22;14227;47.674;19.320;2022-10-16T15:19:23;24.80;32.80
26579;DHT22;14227;47.674;19.320;2022-10-16T15:21:48;24.70;32.90
26579;DHT22;14227;47.674;19.320;2022-10-16T15:24:15;24.50;33.30
26579;DHT22;14227;47.674;19.320;2022-10-16T15:26:41;24.30;33.70
26579;DHT22;14227;47.674;19.320;2022-10-16T15:29:07;24.20;34.20
26579;DHT22;14227;47.674;19.320;2022-10-16T15:31:33;24.10;34.70
26579;DHT22;14227;47.674;19.320;2022-10-16T15:33:59;23.90;35.10
26579;DHT22;14227;47.674;19.320;2022-10-16T15:36:31;23.80;35.30
26579;DHT22;14227;47.674;19.320;2022-10-16T15:38:59;23.60;35.60
26579;DHT22;14227;47.674;19.320;2022-10-16T15:41:25;23.50;35.70
26579;DHT22;14227;47.674;19.320;2022-10-16T15:43:51;23.40;36.10
26579;DHT22;14227;47.674;19.320;2022-10-16T15:46:22;23.20;35.90
26579;DHT22;14227;47.674;19.320;2022-10-16T15:48:49;23.10;35.80
26579;DHT22;14227;47.674;19.320;2022-10-16T15:51:15;23.00;36.10
26579;DHT22;14227;47.674;19.320;2022-10-16T15:53:41;22.80;36.30
26579;DHT22;14227;47.674;19.320;2022-10-16T15:56:08;22.70;36.60
26579;DHT22;14227;47.674;19.320;2022-10-16T15:58:34;22.60;37.10
26579;DHT22;14227;47.674;19.320;2022-10-16T16:01:01;22.50;37.90
26579;DHT22;14227;47.674;19.320;2022-10-16T16:03:29;22.30;38.20
26579;DHT22;14227;47.674;19.320;2022-10-16T16:05:55;22.20;38.90
26579;DHT22;14227;47.674;19.320;2022-10-16T16:08:21;22.10;39.00
26579;DHT22;14227;47.674;19.320;2022-10-16T16:10:58;21.90;38.70
26579;DHT22;14227;47.674;19.320;2022-10-16T16:13:24;21.90;38.90
26579;DHT22;14227;47.674;19.320;2022-10-16T16:15:49;21.70;39.00
26579;DHT22;14227;47.674;19.320;2022-10-16T16:18:15;21.60;39.80
26579;DHT22;14227;47.674;19.320;2022-10-16T16:20:40;21.50;40.00
26579;DHT22;14227;47.674;19.320;2022-10-16T16:23:06;21.30;40.10
26579;DHT22;14227;47.674;19.320;2022-10-16T16:25:32;21.20;40.30
26579;DHT22;14227;47.674;19.320;2022-10-16T16:27:57;21.10;40.60
26579;DHT22;14227;47.674;19.320;2022-10-16T16:30:23;21.00;41.30
26579;DHT22;14227;47.674;19.320;2022-10-16T16:32:48;20.80;40.90
26579;DHT22;14227;47.674;19.320;2022-10-16T16:35:14;20.70;41.80
26579;DHT22;14227;47.674;19.320;2022-10-16T16:37:40;20.60;42.00
26579;DHT22;14227;47.674;19.320;2022-10-16T16:40:06;20.50;41.80
26579;DHT22;14227;47.674;19.320;2022-10-16T16:42:31;20.40;42.40
26579;DHT22;14227;47.674;19.320;2022-10-16T16:44:57;20.30;42.90
26579;DHT22;14227;47.674;19.320;2022-10-16T16:47:23;20.20;43.10
26579;DHT22;14227;47.674;19.320;2022-10-16T16:49:48;20.10;43.20
26579;DHT22;14227;47.674;19.320;2022-10-16T16:52:14;20.00;43.80
26579;DHT22;14227;47.674;19.320;2022-10-16T16:54:40;19.90;43.60
26579;DHT22;14227;47.674;19.320;2022-10-16T16:57:06;19.90;44.00
26579;DHT22;14227;47.674;19.320;2022-10-16T16:59:32;19.80;43.90
26579;DHT22;14227;47.674;19.320;2022-10-16T17:01:58;19.70;43.80
26579;DHT22;14227;47.674;19.320;2022-10-16T17:04:25;19.70;43.90
26579;DHT22;14227;47.674;19.320;2022-10-16T17:06:53;19.60;43.80
26579;DHT22;14227;47.674;19.320;2022-10-16T17:09:20;19.60;43.80
26579;DHT22;14227;47.674;19.320;2022-10-16T17:11:46;19.50;43.70
26579;DHT22;14227;47.674;19.320;2022-10-16T17:14:14;19.40;43.60
26579;DHT22;14227;47.674;19.320;2022-10-16T17:16:41;19.40;43.60
26579;DHT22;14227;47.674;19.320;2022-10-16T17:19:15;19.30;43.80
26579;DHT22;14227;47.674;19.320;2022-10-16T17:21:42;19.30;44.30
26579;DHT22;14227;47.674;19.320;2022-10-16T17:24:08;19.20;44.10
26579;DHT22;14227;47.674;19.320;2022-10-16T17:26:34;19.10;43.30
26579;DHT22;14227;47.674;19.320;2022-10-16T17:29:03;19.10;43.30
26579;DHT22;14227;47.674;19.320;2022-10-16T17:31:32;19.00;44.10
26579;DHT22;14227;47.674;19.320;2022-10-16T17:33:59;19.00;44.70
26579;DHT22;14227;47.674;19.320;2022-10-16T17:36:25;18.90;45.00
26579;DHT22;14227;47.674;19.320;2022-10-16T17:38:54;18.80;45.30
26579;DHT22;14227;47.674;19.320;2022-10-16T17:41:22;18.70;45.50
26579;DHT22;14227;47.674;19.320;2022-10-16T17:43:49;18.60;45.70
26579;DHT22;14227;47.674;19.320;2022-10-16T17:46:17;18.60;45.60